Scott City, Kansas
Current Conditions -  °F | °C
As of 12:54 AM on Thursday 18 Dec 2014 (Local Time) from KGCK Reporting Station
Haze Haze  
Wind Chill: 22°   Ceiling: 500
Heat Index: 29°   Visibility: 5mi
Dew Point: 28°   Wind: 7mph
Humidity: 96%   Direction: 90°E
Pressure: 30.06"   Gusts: NA
Location:  38.48°N, 100.91°W
Report Text: KGCK 180654Z AUTO 09006KT 5SM BR BKN005 OVC016 M02/M02 A3006 RMK AO2 SNB02E10 SLP193 P0000 T10171022
Loading
Personal Weather Stations






























Interactive Weather Map New forecast layout! Learn more

10-Day Weather Forecast

Advertisements
Track Severe Weather on mobile